Time;durP1;ratioP1;P1;durP2;ratioP2;P2;SDS_P1;SDS_P2;PMS_P1;PMS_P2;Temp;Humidity;BMP_temperature;BMP_pressure;BME280_temperature;BME280_humidity;BME280_pressure;Samples;Min_cycle;Max_cycle;Signal;HPM_P1;HPM_P2
2022/04/20 13:42:32;;;;;;;9.60;4.22;;;15.80;48.80;;;;;;5153439;27;147412;-56
2022/04/20 13:44:59;;;;;;;8.85;4.30;;;15.70;50.50;;;;;;5138808;27;20043;-48
2022/04/20 13:47:25;;;;;;;6.95;4.68;;;15.80;51.10;;;;;;5131033;27;20075;-52
2022/04/20 13:49:52;;;;;;;7.13;3.90;;;16.00;50.00;;;;;;5123770;28;20550;-56
2022/04/20 13:52:19;;;;;;;12.00;4.47;;;16.00;49.80;;;;;;5127850;27;20067;-48
2022/04/20 13:54:46;;;;;;;11.57;5.05;;;16.20;49.70;;;;;;5126510;28;20047;-49
2022/04/20 13:57:12;;;;;;;7.15;4.20;;;16.30;49.60;;;;;;5131386;27;20070;-53
2022/04/20 13:59:39;;;;;;;9.80;4.65;;;16.40;49.30;;;;;;5131351;28;20043;-50
2022/04/20 14:02:06;;;;;;;9.40;4.57;;;16.40;48.50;;;;;;5130930;28;20131;-51
2022/04/20 14:04:33;;;;;;;7.03;4.93;;;16.40;47.50;;;;;;5130214;28;20050;-55
2022/04/20 14:06:59;;;;;;;8.98;4.35;;;16.30;47.20;;;;;;5130959;28;20542;-51
2022/04/20 14:09:27;;;;;;;8.43;4.93;;;16.30;47.30;;;;;;5131153;27;20047;-54
2022/04/20 14:11:55;;;;;;;6.82;4.85;;;16.20;47.50;;;;;;5130788;28;20059;-51
2022/04/20 14:14:21;;;;;;;7.13;4.50;;;16.20;46.40;;;;;;5129762;28;20043;-55
2022/04/20 14:16:48;;;;;;;9.23;4.70;;;16.20;47.10;;;;;;5131009;27;20070;-54
2022/04/20 14:19:15;;;;;;;10.25;5.25;;;16.20;46.60;;;;;;5129716;28;20047;-53
2022/04/20 14:21:42;;;;;;;10.70;5.18;;;16.20;47.60;;;;;;5132845;27;20520;-52
2022/04/20 14:24:08;;;;;;;9.68;5.10;;;16.10;47.50;;;;;;5130040;27;20040;-52
2022/04/20 14:32:12;;;;;;;9.57;5.13;;;16.10;47.00;;;;;;5130628;27;20044;-51
2022/04/20 14:34:39;;;;;;;12.82;5.28;;;15.90;47.30;;;;;;5132291;27;20042;-55
2022/04/20 14:37:06;;;;;;;9.63;5.05;;;15.90;48.00;;;;;;5133897;27;20598;-54
2022/04/20 14:39:33;;;;;;;7.70;4.70;;;16.00;48.40;;;;;;5130287;28;20040;-49
2022/04/20 14:42:00;;;;;;;7.45;4.93;;;15.90;48.30;;;;;;5130021;27;20043;-51
2022/04/20 14:44:27;;;;;;;7.97;5.60;;;15.90;48.60;;;;;;5129691;27;20104;-55
2022/04/20 14:46:54;;;;;;;11.60;5.07;;;15.90;48.30;;;;;;5130277;27;20058;-53
2022/04/20 14:49:21;;;;;;;11.25;5.10;;;15.90;47.60;;;;;;5130098;27;20051;-50
2022/04/20 14:51:47;;;;;;;7.88;5.45;;;15.90;48.80;;;;;;5128712;28;20493;-56
2022/04/20 14:54:14;;;;;;;9.90;5.05;;;15.90;47.20;;;;;;5116119;28;20501;-52
2022/04/20 14:56:41;;;;;;;10.75;5.20;;;15.90;47.80;;;;;;5116501;28;20058;-55
2022/04/20 14:59:07;;;;;;;8.38;5.30;;;15.90;49.20;;;;;;5120207;27;20155;-52
2022/04/20 15:01:35;;;;;;;13.52;5.25;;;15.90;48.40;;;;;;5115164;28;20067;-49
2022/04/20 15:04:02;;;;;;;8.18;4.88;;;15.80;48.80;;;;;;5116329;28;20039;-54
2022/04/20 15:06:33;;;;;;;9.73;5.60;;;15.70;49.00;;;;;;5116327;28;20070;-55
2022/04/20 15:09:00;;;;;;;7.97;4.93;;;15.60;48.50;;;;;;5115903;28;20044;-51
2022/04/20 15:11:27;;;;;;;7.30;4.82;;;15.50;49.20;;;;;;5114333;28;20466;-51
2022/04/20 15:13:55;;;;;;;11.43;4.45;;;15.50;48.20;;;;;;5115255;28;20047;-56
2022/04/20 15:16:21;;;;;;;7.03;4.30;;;15.60;48.10;;;;;;5116018;28;20043;-50
2022/04/20 15:18:49;;;;;;;8.77;4.85;;;15.60;48.30;;;;;;5113803;28;20039;-52
2022/04/20 15:21:15;;;;;;;7.25;4.60;;;15.60;48.00;;;;;;5116158;28;20495;-53
2022/04/20 15:23:52;;;;;;;6.20;3.92;;;15.50;48.70;;;;;;5116205;28;20074;-53
2022/04/20 15:26:20;;;;;;;8.20;4.13;;;15.60;49.40;;;;;;5114635;28;20471;-54
2022/04/20 15:28:46;;;;;;;7.13;4.20;;;15.60;49.30;;;;;;5115757;28;20043;-50
2022/04/20 15:31:13;;;;;;;7.25;4.60;;;15.50;49.70;;;;;;5115608;28;20131;-54
2022/04/20 15:33:40;;;;;;;10.23;4.70;;;15.60;49.60;;;;;;5119551;27;20051;-55
2022/04/20 15:36:07;;;;;;;7.60;4.57;;;15.50;49.90;;;;;;5114268;28;20426;-53
2022/04/20 15:38:34;;;;;;;7.50;4.15;;;15.60;49.80;;;;;;5115696;27;20104;-50
2022/04/20 15:41:01;;;;;;;8.77;4.22;;;15.60;49.30;;;;;;5115218;28;20043;-53
2022/04/20 15:43:27;;;;;;;9.55;4.13;;;15.50;49.70;;;;;;5113759;28;20040;-51
2022/04/20 15:45:58;;;;;;;10.90;4.03;;;15.60;50.00;;;;;;5115745;27;20044;-51
2022/04/20 15:48:26;;;;;;;7.90;4.57;;;15.70;49.10;;;;;;5115556;28;20089;-53
2022/04/20 15:50:53;;;;;;;12.40;4.22;;;15.80;48.90;;;;;;5115265;28;20389;-52
2022/04/20 15:53:19;;;;;;;9.13;4.50;;;16.00;49.80;;;;;;5115127;27;20035;-48
2022/04/20 16:01:17;;;;;;;9.95;4.07;;;16.20;48.70;;;;;;5115427;28;20035;-54
2022/04/20 16:03:44;;;;;;;5.88;4.00;;;16.30;48.80;;;;;;5114766;28;20039;-46
2022/04/20 16:06:11;;;;;;;9.27;4.05;;;16.30;48.20;;;;;;5118064;27;20040;-48
2022/04/20 16:08:37;;;;;;;8.70;4.88;;;16.40;48.80;;;;;;5115195;28;20043;-50
2022/04/20 16:11:04;;;;;;;8.70;4.20;;;16.30;49.50;;;;;;5114180;28;20039;-48
2022/04/20 16:13:31;;;;;;;6.25;3.95;;;16.40;48.50;;;;;;5115071;28;20048;-49
2022/04/20 16:15:59;;;;;;;7.70;4.20;;;16.40;48.40;;;;;;5114226;28;20406;-52
2022/04/20 16:18:26;;;;;;;6.70;3.88;;;16.50;48.60;;;;;;5114924;28;20035;-51
2022/04/20 16:20:52;;;;;;;8.73;4.30;;;16.90;47.80;;;;;;5116604;27;20043;-51
2022/04/20 16:23:19;;;;;;;8.88;3.70;;;17.40;46.40;;;;;;5116407;27;20063;-51
2022/04/20 16:25:46;;;;;;;9.52;4.40;;;17.70;46.20;;;;;;5114700;28;20047;-50
2022/04/20 16:28:13;;;;;;;6.28;3.83;;;17.80;45.00;;;;;;5114038;28;20035;-51
2022/04/20 16:30:40;;;;;;;6.38;3.92;;;17.70;45.60;;;;;;5114705;28;20036;-55
2022/04/20 16:33:07;;;;;;;6.53;3.95;;;17.80;45.40;;;;;;5117532;27;20047;-50
2022/04/20 16:35:33;;;;;;;9.80;4.45;;;17.80;44.90;;;;;;5114594;28;20109;-55
2022/04/20 16:38:01;;;;;;;7.90;4.07;;;17.70;45.70;;;;;;5114251;28;20123;-53
2022/04/20 16:40:28;;;;;;;7.88;3.78;;;17.50;45.70;;;;;;5114473;28;20039;-54
2022/04/20 16:42:55;;;;;;;5.45;3.40;;;17.40;45.40;;;;;;5113847;28;20093;-54
2022/04/20 16:45:22;;;;;;;6.85;2.97;;;17.30;45.90;;;;;;5114285;28;20065;-51
2022/04/20 16:47:48;;;;;;;5.35;3.38;;;17.20;46.30;;;;;;5115800;27;20068;-51
2022/04/20 16:50:16;;;;;;;5.78;3.25;;;17.10;46.20;;;;;;5117255;27;20452;-54
2022/04/20 16:52:43;;;;;;;7.18;3.47;;;17.00;46.50;;;;;;5114098;28;20119;-53
2022/04/20 16:55:10;;;;;;;7.45;3.67;;;16.90;46.70;;;;;;5115351;27;20069;-53
2022/04/20 16:57:36;;;;;;;7.72;3.30;;;17.00;47.80;;;;;;5114243;28;20126;-53
2022/04/20 17:00:03;;;;;;;7.03;3.38;;;17.00;46.00;;;;;;5114261;28;20044;-54
2022/04/20 17:02:30;;;;;;;6.82;3.38;;;17.10;46.40;;;;;;5118662;27;20065;-52
2022/04/20 17:04:57;;;;;;;6.63;3.15;;;17.00;47.10;;;;;;5114141;28;20104;-50
2022/04/20 17:07:24;;;;;;;5.65;3.10;;;17.00;47.30;;;;;;5113202;28;20244;-55
2022/04/20 17:09:50;;;;;;;6.00;3.83;;;17.10;47.50;;;;;;5119488;27;20040;-52
2022/04/20 17:12:18;;;;;;;7.43;3.50;;;16.90;48.00;;;;;;5113875;28;20490;-52
2022/04/20 17:14:44;;;;;;;8.25;4.10;;;16.60;48.40;;;;;;5113707;27;20044;-53
2022/04/20 17:17:11;;;;;;;7.40;3.38;;;16.40;49.30;;;;;;5113416;28;20092;-51
2022/04/20 17:19:38;;;;;;;4.55;3.30;;;16.20;50.00;;;;;;5112542;28;20048;-54
2022/04/20 17:27:36;;;;;;;7.70;3.53;;;15.80;51.60;;;;;;5113445;28;20093;-50
2022/04/20 17:30:02;;;;;;;7.88;3.33;;;15.60;52.30;;;;;;5111605;28;20466;-51
2022/04/20 17:32:29;;;;;;;6.13;3.50;;;15.60;52.80;;;;;;5113466;28;20035;-52
2022/04/20 17:37:41;;;;;;;;;;;15.30;54.80;;;;;;5118913;27;20055;-51
2022/04/20 17:40:08;;;;;;;9.25;3.17;;;15.30;55.30;;;;;;5112015;28;19972;-51
2022/04/20 17:42:36;;;;;;;6.20;3.42;;;15.10;55.30;;;;;;5113998;28;20047;-50
2022/04/20 17:45:03;;;;;;;8.82;3.40;;;15.10;55.80;;;;;;5113646;28;20035;-51
2022/04/20 17:47:30;;;;;;;5.88;3.20;;;15.10;56.10;;;;;;5112710;28;20032;-54
2022/04/20 17:49:58;;;;;;;7.13;3.35;;;15.00;56.40;;;;;;5113323;28;20082;-53
2022/04/20 17:52:25;;;;;;;8.27;3.17;;;14.90;56.40;;;;;;5116928;28;20112;-53
2022/04/20 17:54:52;;;;;;;8.95;3.38;;;14.90;57.40;;;;;;5113368;28;20043;-56
2022/04/20 17:57:18;;;;;;;5.55;3.30;;;14.80;57.80;;;;;;5112780;28;20060;-54
2022/04/20 17:59:46;;;;;;;6.55;3.88;;;14.70;58.10;;;;;;5113347;28;20122;-49
2022/04/20 18:02:12;;;;;;;6.47;3.95;;;14.60;58.50;;;;;;5112443;28;20490;-50
2022/04/20 18:04:39;;;;;;;8.32;4.38;;;14.60;59.40;;;;;;5113343;28;20032;-53
2022/04/20 18:07:06;;;;;;;9.77;5.30;;;14.60;60.00;;;;;;5113271;28;20116;-57
2022/04/20 18:09:33;;;;;;;9.05;5.35;;;14.50;60.20;;;;;;5115424;28;20035;-54
2022/04/20 18:11:59;;;;;;;7.05;4.43;;;14.40;60.70;;;;;;5113443;28;20046;-50
2022/04/20 18:14:26;;;;;;;9.75;4.30;;;14.30;61.00;;;;;;5116478;28;20070;-50
2022/04/20 18:16:53;;;;;;;6.60;4.22;;;14.20;62.30;;;;;;5113376;28;20047;-55
2022/04/20 18:19:20;;;;;;;7.75;4.47;;;14.20;62.10;;;;;;5113206;28;20491;-51
2022/04/20 18:21:47;;;;;;;10.32;4.38;;;14.10;62.20;;;;;;5117112;28;20032;-55
2022/04/20 18:24:14;;;;;;;7.43;5.07;;;14.00;62.60;;;;;;5113222;28;20538;-52
2022/04/20 18:26:41;;;;;;;7.88;4.85;;;13.90;63.00;;;;;;5117378;27;20038;-52
2022/04/20 18:29:09;;;;;;;8.85;4.95;;;13.90;63.40;;;;;;5116477;28;20079;-50
2022/04/20 18:31:38;;;;;;;9.30;5.25;;;13.80;64.10;;;;;;5117294;27;20035;-55
2022/04/20 18:34:05;;;;;;;11.45;5.85;;;13.80;64.70;;;;;;5117065;28;20035;-52
2022/04/20 18:36:32;;;;;;;10.38;5.43;;;13.60;65.30;;;;;;5117235;28;20066;-56
2022/04/20 18:38:59;;;;;;;13.13;5.68;;;13.60;66.30;;;;;;5121100;27;20046;-52
2022/04/20 18:41:27;;;;;;;12.57;5.97;;;13.50;66.50;;;;;;5116535;28;20059;-52
2022/04/20 18:44:00;;;;;;;8.23;5.68;;;13.50;67.10;;;;;;5117704;27;20056;-55
2022/04/20 18:46:27;;;;;;;11.43;5.75;;;13.40;67.40;;;;;;5115651;28;20046;-51
2022/04/20 18:48:54;;;;;;;9.85;6.22;;;13.30;68.30;;;;;;5118839;27;20041;-53
2022/04/20 18:51:21;;;;;;;17.73;7.30;;;13.20;68.10;;;;;;5116840;27;20046;-51
2022/04/20 18:59:19;;;;;;;12.18;6.25;;;13.00;68.30;;;;;;5118956;27;20387;-54
2022/04/20 19:01:46;;;;;;;15.70;6.68;;;12.90;68.50;;;;;;5117022;27;20100;-50
2022/04/20 19:06:58;;;;;;;14.75;8.05;;;12.80;70.00;;;;;;5115238;28;20059;-55
2022/04/20 19:09:25;;;;;;;15.65;9.10;;;12.70;71.30;;;;;;5114048;28;20036;-53
2022/04/20 19:11:52;;;;;;;18.73;10.30;;;12.70;72.40;;;;;;5104232;28;20044;-51
2022/04/20 19:14:19;;;;;;;14.77;10.15;;;12.60;73.60;;;;;;5113017;28;20043;-48
2022/04/20 19:16:49;;;;;;;16.58;10.55;;;12.50;74.30;;;;;;5109906;28;20050;-54
2022/04/20 19:19:16;;;;;;;21.95;10.93;;;12.40;75.00;;;;;;5109698;27;20048;-54
2022/04/20 19:21:43;;;;;;;18.48;10.35;;;12.40;75.80;;;;;;5115778;28;20083;-47
2022/04/20 19:24:10;;;;;;;16.83;10.45;;;12.30;76.70;;;;;;5114876;28;20040;-57
2022/04/20 19:26:36;;;;;;;18.10;9.50;;;12.20;77.40;;;;;;5115591;28;20055;-53
2022/04/20 19:29:03;;;;;;;19.70;10.82;;;12.20;77.80;;;;;;5108915;27;20058;-50
2022/04/20 19:31:30;;;;;;;16.60;9.95;;;12.10;78.30;;;;;;5115532;28;20046;-55
2022/04/20 19:33:57;;;;;;;21.40;10.43;;;12.10;78.80;;;;;;5119991;27;20122;-50
2022/04/20 19:36:24;;;;;;;14.15;9.32;;;12.00;79.10;;;;;;5115558;28;20044;-54
2022/04/20 19:38:51;;;;;;;17.52;11.40;;;11.90;79.60;;;;;;5109733;28;20446;-53
2022/04/20 19:41:18;;;;;;;16.30;9.35;;;11.90;79.60;;;;;;5109080;27;20097;-51
2022/04/20 19:43:45;;;;;;;15.45;9.93;;;11.80;80.00;;;;;;5089330;28;20054;-57
2022/04/20 19:46:12;;;;;;;13.98;9.45;;;11.80;80.10;;;;;;5108580;28;20562;-49
2022/04/20 19:48:39;;;;;;;16.08;9.18;;;11.70;80.60;;;;;;5108261;28;20123;-54
2022/04/20 19:51:07;;;;;;;18.90;8.63;;;11.60;80.30;;;;;;5108569;28;20478;-48
2022/04/20 19:53:33;;;;;;;14.30;8.38;;;11.60;80.50;;;;;;5106996;28;20486;-54
2022/04/20 19:56:00;;;;;;;16.17;7.85;;;11.50;80.70;;;;;;5115013;28;20047;-55
2022/04/20 19:58:30;;;;;;;13.40;7.65;;;11.40;80.40;;;;;;5114276;28;20115;-56
2022/04/20 20:00:58;;;;;;;13.15;7.60;;;11.40;80.20;;;;;;5108523;28;20036;-53
2022/04/20 20:03:25;;;;;;;14.35;6.93;;;11.40;80.40;;;;;;5114692;28;20039;-53
2022/04/20 20:08:38;;;;;;;13.90;6.82;;;11.30;80.40;;;;;;5110804;28;20536;-56
2022/04/20 20:11:04;;;;;;;10.75;6.90;;;11.30;80.50;;;;;;5114713;28;20078;-55
2022/04/20 20:13:34;;;;;;;12.48;6.93;;;11.30;80.50;;;;;;5114669;28;20048;-53
2022/04/20 20:16:01;;;;;;;15.45;6.78;;;11.30;80.60;;;;;;5114928;28;20047;-54
2022/04/20 20:18:29;;;;;;;15.63;6.63;;;11.20;80.60;;;;;;5112724;28;20485;-52
2022/04/20 20:21:06;;;;;;;11.95;5.63;;;11.20;81.00;;;;;;5108681;28;20101;-56
2022/04/20 20:31:52;;;;;;;12.38;6.40;;;11.10;81.80;;;;;;5111443;28;20039;-55
2022/04/20 20:34:19;;;;;;;11.45;5.95;;;11.10;81.80;;;;;;5114916;28;20070;-57
2022/04/20 20:36:46;;;;;;;13.77;7.30;;;11.00;82.00;;;;;;5109603;27;20087;-53
2022/04/20 20:39:13;;;;;;;10.30;6.55;;;11.00;81.90;;;;;;5097740;28;20066;-52
2022/04/20 20:41:39;;;;;;;10.85;6.30;;;11.00;82.30;;;;;;5109517;28;20075;-49
2022/04/20 20:44:07;;;;;;;13.18;6.43;;;10.90;82.50;;;;;;5110401;27;20101;-51
2022/04/20 20:46:34;;;;;;;12.25;7.03;;;10.90;82.80;;;;;;5109879;28;20032;-53
2022/04/20 20:51:46;;;;;;;15.32;7.22;;;10.90;83.50;;;;;;5113322;27;20047;-55
2022/04/20 20:54:13;;;;;;;10.65;6.45;;;10.80;83.50;;;;;;5112610;28;20036;-50
2022/04/20 20:56:40;;;;;;;9.95;6.05;;;10.80;84.00;;;;;;5114003;28;20040;-52
2022/04/20 20:59:06;;;;;;;12.10;6.15;;;10.80;84.20;;;;;;5102077;28;20059;-52
2022/04/20 21:01:33;;;;;;;14.00;6.60;;;10.80;84.60;;;;;;5105791;28;20100;-50
2022/04/20 21:04:00;;;;;;;11.00;5.97;;;10.70;84.90;;;;;;5102340;28;20043;-55
2022/04/20 21:06:27;;;;;;;8.82;5.65;;;10.70;85.20;;;;;;5103075;28;20040;-52
2022/04/20 21:08:53;;;;;;;10.73;6.00;;;10.70;85.80;;;;;;5108610;27;20060;-55
2022/04/20 21:11:20;;;;;;;9.00;5.90;;;10.70;85.80;;;;;;5106681;28;20063;-52
2022/04/20 21:13:47;;;;;;;14.70;6.43;;;10.70;85.80;;;;;;5112207;28;20544;-50
2022/04/20 21:16:14;;;;;;;9.70;6.07;;;10.70;86.20;;;;;;5109271;28;20048;-50
2022/04/20 21:18:40;;;;;;;9.68;5.90;;;10.60;86.40;;;;;;5113009;28;20031;-53
2022/04/20 21:21:07;;;;;;;8.82;6.22;;;10.60;86.50;;;;;;5109052;28;20047;-53
2022/04/20 21:23:34;;;;;;;11.77;6.60;;;10.60;86.60;;;;;;5113522;28;20126;-53
2022/04/20 21:26:01;;;;;;;10.20;6.22;;;10.60;86.70;;;;;;5114282;27;20032;-51
2022/04/20 21:28:28;;;;;;;11.10;6.10;;;10.60;87.00;;;;;;5107742;28;20534;-55
2022/04/20 21:30:54;;;;;;;10.80;6.35;;;10.50;87.10;;;;;;5113580;28;20043;-54
2022/04/20 21:33:21;;;;;;;11.20;6.72;;;10.50;87.20;;;;;;5113688;28;20044;-49
2022/04/20 21:35:49;;;;;;;10.73;6.20;;;10.50;87.30;;;;;;5110490;28;20035;-54
2022/04/20 21:38:15;;;;;;;12.68;6.60;;;10.50;87.60;;;;;;5111534;28;20039;-52
2022/04/20 21:40:58;;;;;;;10.02;6.38;;;10.50;87.60;;;;;;5112006;28;20547;-53
2022/04/20 21:43:25;;;;;;;13.35;6.32;;;10.50;87.90;;;;;;5106997;28;20134;-52
2022/04/20 21:45:52;;;;;;;10.30;6.38;;;10.40;87.90;;;;;;5113657;28;20218;-56
2022/04/20 21:48:19;;;;;;;9.25;6.20;;;10.40;87.90;;;;;;5104728;28;20042;-51
2022/04/20 21:50:46;;;;;;;11.90;6.30;;;10.40;87.90;;;;;;5113611;28;20039;-56
